Menahga, MN (56464)

9:19 AM CDT on September 02, 2015 (GMT -0500)
Pyburn Addition | | Change Station
CLOSE
Current Station
Personal Weather Station
Location: Menahga, MN
Elevation: 1444 ft
Nearby Weather Stations

Elev 1444 ft 46.84 °N, 95.09 °W | Updated 1 second ago

Overcast
Overcast
70.2 °F
Feels Like 70.2 °F
N
0.0
Wind Variable Wind from SSE
Gusts 0.0 mph

Today
High -- | Low -- °F
--% Chance of Precip.
Yesterday
High -- | Low -- °F
Precip. -- in
6:40 AM 7:57 PM
Waning Gibbous, 80% visible
Pressure 29.91 in
Visibility 1.8 miles
Clouds Overcast 200 ft
Dew Point 70 °F
Humidity 98%
Rainfall 0.00 in
Snow Depth Not available.
UV 1.0 out of 12
Pollen 10.30 out of 12
Air Quality Not available.
Flu Activity Not available.
SPECI KPKD 021411Z AUTO 14005KT 1 3/4SM BR OVC002 21/20 A2991 RMK AO2 T02110200
Pressure 29.91 in
Visibility 1.8 miles
Clouds Overcast 200 ft
Dew Point 70 °F
Humidity 98%
Rainfall 0.00 in
Snow Depth Not available.
UV 1.0 out of 12
Pollen 10.30 out of 12
Air Quality Not available.
Flu Activity Not available.
SPECI KPKD 021411Z AUTO 14005KT 1 3/4SM BR OVC002 21/20 A2991 RMK AO2 T02110200

10-Day Weather Forecast

×

Almanac

Astronomy

Sep. 02, 2015 Rise Set
Actual Time
Civil Twilight
Nautical Twilight
Astronomical Twilight
Moon
Length of Visible Light
Length of Day
Tomorrow will be .
, % of the Moon is Illuminated

Today's Extremes

State Highs State Lows

Community

WunderPhotos

Upload Photos

1,851,758 photos uploaded!

WunderBlogs® & News

Nearby

Air Quality

  Air Quality AQ Index Pollutant
Not available.

Snow Depth

Station Depth Elevation

Earthquake Activity

City Distance Mag. Time & Date
Minimum magnitude displayed is 2.5.

Coastal Water Temperatures

Place Temperature

Stations

Nearby Weather Stations

Station Location Temp. Windchill Dew Point Humidity Wind Precip. Elev Updated Type